Korinthos, Greece
Current Conditions -  °F | °C
As of 2:50 PM on Sunday 21 Dec 2014 (Local Time) from LGEL Reporting Station
Few Clouds Few Clouds  
Wind Chill: 64°   Ceiling: Unl
Heat Index: 64°   Visibility: 6mi
Dew Point: 45°   Wind: 13mph
Humidity: 49%   Direction: 310°NW
Pressure: 30.03"   Gusts: NA
Location:  37.94°N, 22.93°E
Report Text: LGEL 211150Z 31011KT 9999 FEW025 18/07 Q1017
Loading
Personal Weather Stations






























Interactive Weather Map New forecast layout! Learn more

10-Day Weather Forecast

Advertisements
Track Severe Weather on mobile